Latest Weather Observations for Strahan

IDT60801

Issued at 2:11 pm EDT Tuesday 10 December 2019 (issued every 10 minutes, with the page automatically refreshed every 10 minutes)

About weather observations | Map of weather stations | Latest weather observations for TAS | Other Formats
Station Details ID: 097072 Name: STRAHAN AERODROME Lat: -42.16 Lon: 145.29 Height: 21.0 m
Data from the previous 72 hours. | See also: Recent months at Strahan
Date/Time
EDT
Temp
°C
App
Temp
°C
Dew
Point
°C
Rel
Hum
%
Delta-T
°C
Wind Press
QNH
hPa
Press
MSL
hPa
Rain since
9am
mm
Dir  Spd
km/h
Gust
km/h
Spd
kts
Gust
kts
10/02:00pm 15.8 13.0 6.8 55 4.4 S 11 20 6 11 1019.7 1019.6 0.0
10/01:30pm 14.8 11.5 6.6 58 4.0 S 13 20 7 11 1019.8 1019.7 0.0
10/01:00pm 14.6 11.0 6.9 60 3.7 S 15 22 8 12 1019.9 1019.8 0.0
10/12:30pm 16.0 12.5 7.2 56 4.4 S 15 24 8 13 1019.8 1019.7 0.0
10/12:00pm 15.0 11.4 6.8 58 4.0 S 15 24 8 13 1019.7 1019.6 0.0
10/11:30am 13.9 9.7 5.8 58 3.8 SSW 17 22 9 12 1019.7 1019.6 0.0
10/11:00am 13.7 10.5 7.0 64 3.2 S 13 20 7 11 1019.5 1019.4 0.0
10/10:30am 14.3 11.4 8.0 66 3.1 SE 13 20 7 11 1019.4 1019.3 0.0
10/10:00am 13.3 9.9 7.7 69 2.7 SSE 15 20 8 11 1019.3 1019.2 0.0
10/09:30am 12.3 8.7 6.8 69 2.6 SE 15 20 8 11 1019.1 1019.0 0.0
10/09:00am 12.3 9.0 6.6 68 2.7 SSE 13 20 7 11 1018.8 1018.7 0.6
10/08:30am 11.6 8.2 6.1 69 2.6 S 13 19 7 10 1018.5 1018.4 0.6
10/08:00am 11.6 8.9 7.5 76 2.0 SSE 11 17 6 9 1018.1 1018.0 0.6
10/07:30am 10.7 7.9 7.0 78 1.8 SSE 11 15 6 8 1017.7 1017.6 0.6
10/07:00am 10.3 7.9 7.2 81 1.5 SSE 9 13 5 7 1017.6 1017.5 0.6
10/06:30am 9.7 6.8 6.6 81 1.4 S 11 15 6 8 1017.3 1017.2 0.6
10/06:00am 9.8 7.0 6.9 82 1.4 S 11 19 6 10 1016.9 1016.8 0.6
10/05:30am 9.7 6.5 7.0 83 1.3 S 13 17 7 9 1016.6 1016.5 0.6
10/05:00am 9.5 5.9 6.8 83 1.3 SSW 15 19 8 10 1016.3 1016.2 0.6
10/04:30am 9.7 6.7 7.8 88 0.9 S 13 17 7 9 1016.3 1016.2 0.6
10/04:00am 10.2 7.6 9.3 94 0.4 SSW 13 19 7 10 1016.1 1016.0 0.6
10/03:37am 10.4 7.9 9.8 96 0.3 SSW 13 20 7 11 1015.8 1015.7 0.6
10/03:30am 10.5 8.4 9.9 96 0.3 SSW 11 13 6 7 1015.9 1015.8 0.6
10/03:20am 10.5 8.4 9.9 96 0.3 SSW 11 13 6 7 1015.9 1015.8 0.6
10/03:04am 10.6 8.2 10.0 96 0.3 SSW 13 17 7 9 1016.1 1016.0 0.6
10/03:00am 10.7 8.3 10.1 96 0.3 SSW 13 17 7 9 1016.0 1015.9 0.6
10/02:57am 10.7 7.9 10.1 96 0.3 SSW 15 20 8 11 1016.0 1015.9 0.6
10/02:30am 10.9 7.8 10.3 96 0.3 SW 17 26 9 14 1016.2 1016.1 0.6
10/02:19am 11.2 8.9 10.6 96 0.3 SW 13 17 7 9 1016.1 1016.0 0.6
10/02:17am 11.3 9.1 10.7 96 0.3 SW 13 19 7 10 1016.0 1015.9 0.6
10/02:16am 11.3 9.1 10.7 96 0.3 SW 13 19 7 10 1016.0 1015.9 0.6
10/02:15am 11.2 8.9 10.6 96 0.3 SW 13 19 7 10 1016.0 1015.9 0.6
10/02:00am 11.3 8.7 10.7 96 0.3 SW 15 20 8 11 1015.8 1015.7 0.6
10/01:59am 11.3 8.7 10.7 96 0.3 SW 15 20 8 11 1015.8 1015.7 0.6
10/01:35am 11.5 8.2 10.9 96 0.3 SW 19 24 10 13 1015.4 1015.4 0.6
10/01:30am 11.5 8.2 10.9 96 0.3 SW 19 26 10 14 1015.4 1015.4 0.6
10/01:00am 11.7 10.9 11.1 96 0.3 WSW 6 9 3 5 1015.7 1015.6 0.4
10/12:30am 11.7 10.3 10.9 95 0.4 SW 9 11 5 6 1015.7 1015.6 0.2
10/12:27am 11.8 10.4 11.0 95 0.4 SW 9 11 5 6 1015.7 1015.6 0.2
10/12:09am 11.8 9.7 11.0 95 0.4 SW 13 15 7 8 1015.3 1015.3 0.2
10/12:00am 11.9 9.0 11.0 94 0.5 SW 17 20 9 11 1015.1 1015.1 0.2
 
Date/Time
EDT
Temp
°C
App
Temp
°C
Dew
Point
°C
Rel
Hum
%
Delta-T
°C
Wind Press
QNH
hPa
Press
MSL
hPa
Rain since
9am
mm
Dir  Spd
km/h
Gust
km/h
Spd
kts
Gust
kts
09/11:48pm 12.0 9.9 11.1 94 0.5 WSW 13 19 7 10 1015.1 1015.1 0.0
09/11:30pm 12.1 10.3 11.0 93 0.6 SW 11 15 6 8 1014.7 1014.7 0.0
09/11:00pm 12.2 9.6 10.8 91 0.7 SW 15 19 8 10 1014.6 1014.6 0.0
09/10:30pm 12.3 9.4 10.9 91 0.7 SW 17 24 9 13 1014.6 1014.6 0.0
09/10:00pm 12.6 10.5 11.3 92 0.7 SW 13 17 7 9 1014.2 1014.2 0.0
09/09:41pm 12.8 10.8 11.5 92 0.7 WSW 13 17 7 9 1013.9 1013.9 0.0
09/09:30pm 12.8 11.2 11.4 91 0.7 WSW 11 15 6 8 1013.7 1013.7 0.0
09/09:00pm 13.2 11.2 11.6 90 0.9 SW 13 15 7 8 1013.2 1013.2 0.0
09/08:30pm 13.4 11.8 11.6 89 1.0 WSW 11 17 6 9 1013.0 1013.0 0.0
09/08:00pm 13.9 12.0 11.9 88 1.1 W 13 15 7 8 1012.7 1012.7 0.0
09/07:30pm 14.4 13.1 12.4 88 1.1 WNW 11 15 6 8 1012.4 1012.4 0.0
09/07:00pm 14.9 12.4 12.4 85 1.4 NW 17 24 9 13 1012.4 1012.4 0.0
09/06:30pm 15.4 12.9 12.3 82 1.7 WNW 17 26 9 14 1012.2 1012.2 0.0
09/06:17pm 15.8 13.7 12.5 81 1.8 NW 15 22 8 12 1012.2 1012.2 0.0
09/06:02pm 16.1 14.1 12.8 81 1.8 WNW 15 22 8 12 1012.0 1012.0 0.0
09/06:00pm 15.9 14.2 12.6 81 1.8 WNW 13 22 7 12 1012.0 1012.0 0.0
09/05:30pm 15.2 13.7 13.1 87 1.2 SW 13 19 7 10 1011.6 1011.6 0.0
09/05:19pm 15.1 13.9 12.8 86 1.3 SW 11 26 6 14 1011.6 1011.6 0.0
09/05:00pm 15.7 14.3 12.3 80 1.9 WSW 11 19 6 10 1011.5 1011.5 0.0
09/04:30pm 17.7 14.3 12.4 71 2.9 WSW 22 33 12 18 1010.4 1010.4 0.0
09/04:00pm 19.5 15.6 12.0 62 4.2 W 24 33 13 18 1009.5 1009.5 0.0
09/03:30pm 21.9 17.9 11.9 53 5.6 WNW 24 35 13 19 1008.9 1008.9 0.0
09/03:00pm 23.7 19.3 10.4 43 7.4 WNW 24 32 13 17 1008.7 1008.7 0.0
09/02:30pm 27.3 23.2 10.1 34 9.6 N 22 32 12 17 1007.6 1007.6 0.0
09/02:00pm 27.5 22.7 8.9 31 10.2 N 24 33 13 18 1007.5 1007.5 0.0
09/01:30pm 25.2 19.6 8.7 35 8.9 NNE 28 41 15 22 1007.5 1007.5 0.0
09/01:00pm 23.7 18.3 8.2 37 8.2 NNE 26 43 14 23 1008.4 1008.4 0.0
09/12:30pm 24.2 18.5 8.2 36 8.5 N 28 39 15 21 1009.4 1009.4 0.0
09/12:00pm 24.1 18.8 8.5 37 8.4 N 26 39 14 21 1010.4 1010.4 0.0
09/11:30am 24.2 18.8 7.8 35 8.7 NNE 26 37 14 20 1010.0 1010.0 0.0
09/11:00am 24.4 18.1 7.5 34 8.9 N 30 43 16 23 1010.3 1010.3 0.0
09/10:30am 24.1 18.3 8.1 36 8.5 NNE 28 41 15 22 1010.3 1010.3 0.0
09/10:00am 22.6 16.8 8.0 39 7.7 NNE 28 43 15 23 1010.1 1010.1 0.0
09/09:30am 20.8 15.3 7.4 42 6.9 NNE 26 37 14 20 1010.4 1010.4 0.0
09/09:02am 20.0 14.0 7.1 43 6.6 NNE 28 46 15 25 1010.1 1010.1 0.0
09/09:00am 20.1 13.7 6.8 42 6.7 NNE 30 46 16 25 1010.2 1010.2 0.0
09/08:30am 19.7 13.6 6.4 42 6.7 NNE 28 44 15 24 1010.1 1010.1 0.0
09/08:00am 19.2 13.0 6.3 43 6.4 NNE 28 39 15 21 1010.1 1010.1 0.0
09/07:30am 18.7 12.1 5.9 43 6.3 NNE 30 43 16 23 1010.0 1010.0 0.0
09/07:00am 17.9 11.7 6.1 46 5.8 NNE 28 39 15 21 1010.0 1010.0 0.0
09/06:30am 17.5 11.3 6.1 47 5.6 NNE 28 43 15 23 1010.1 1010.1 0.0
09/06:00am 16.8 10.9 6.0 49 5.3 NNE 26 39 14 21 1010.2 1010.2 0.0
09/05:30am 16.6 10.3 5.9 49 5.2 NNE 28 44 15 24 1010.7 1010.7 0.0
09/05:00am 16.9 11.7 5.5 47 5.5 NNE 22 33 12 18 1011.0 1011.0 0.0
09/04:30am 17.0 11.5 5.9 48 5.4 NNE 24 35 13 19 1011.1 1011.1 0.0
09/04:01am 16.9 10.6 5.8 48 5.4 NNE 28 48 15 26 1010.8 1010.8 0.0
09/04:00am 16.9 11.0 5.8 48 5.4 NNE 26 48 14 26 1010.8 1010.8 0.0
09/03:31am 16.7 10.1 6.2 50 5.1 NNE 30 48 16 26 1011.3 1011.3 0.0
09/03:30am 16.8 9.9 6.3 50 5.1 NNE 32 48 17 26 1011.3 1011.3 0.0
09/03:00am 16.1 10.1 7.1 55 4.5 NNE 28 48 15 26 1011.9 1011.9 0.0
09/02:55am 16.3 10.4 7.3 55 4.5 NNE 28 48 15 26 1012.0 1012.0 0.0
09/02:30am 13.7 10.2 8.7 72 2.5 NE 17 26 9 14 1012.6 1012.6 0.0
09/02:00am 10.7 8.7 8.6 87 1.0 E 9 11 5 6 1013.5 1013.5 0.0
09/01:30am 10.0 9.0 8.8 92 0.6 NE 4 9 2 5 1014.1 1014.1 0.0
09/01:00am 10.4 8.7 9.8 96 0.3 ENE 9 11 5 6 1014.4 1014.4 0.0
09/12:30am 10.6 10.6 9.8 95 0.4 CALM 0 0 0 0 1015.3 1015.3 0.0
09/12:00am 10.4 9.9 9.5 94 0.4 ENE 2 7 1 4 1015.7 1015.6 0.0
 
Date/Time
EDT
Temp
°C
App
Temp
°C
Dew
Point
°C
Rel
Hum
%
Delta-T
°C
Wind Press
QNH
hPa
Press
MSL
hPa
Rain since
9am
mm
Dir  Spd
km/h
Gust
km/h
Spd
kts
Gust
kts
08/11:30pm 10.7 9.5 9.6 93 0.6 NW 6 9 3 5 1016.0 1015.9 0.0
08/11:00pm 11.3 10.1 10.4 94 0.5 NW 7 11 4 6 1016.3 1016.2 0.0
08/10:30pm 11.7 11.1 10.4 92 0.7 NE 4 7 2 4 1016.2 1016.1 0.0
08/10:00pm 12.2 11.4 10.9 92 0.7 NNW 6 9 3 5 1016.6 1016.5 0.0
08/09:30pm 12.5 11.5 11.1 91 0.7 NW 7 9 4 5 1016.5 1016.4 0.0
08/09:00pm 12.8 11.8 10.9 88 1.0 NW 7 9 4 5 1016.7 1016.6 0.0
08/08:30pm 13.6 11.9 11.1 85 1.3 WNW 11 15 6 8 1017.0 1016.9 0.0
08/08:00pm 14.6 13.6 11.0 79 1.9 NW 7 11 4 6 1017.0 1016.9 0.0
08/07:30pm 15.2 12.7 11.2 77 2.1 NW 15 19 8 10 1017.3 1017.2 0.0
08/07:00pm 15.3 13.1 10.7 74 2.4 NW 13 17 7 9 1017.1 1017.0 0.0
08/06:30pm 15.6 12.7 11.0 74 2.5 NW 17 20 9 11 1016.9 1016.8 0.0
08/06:00pm 17.1 14.9 10.9 67 3.3 W 13 17 7 9 1016.9 1016.8 0.0
08/05:30pm 17.9 15.5 11.5 66 3.5 W 15 19 8 10 1017.2 1017.1 0.0
08/05:00pm 17.2 14.9 10.6 65 3.5 W 13 19 7 10 1017.2 1017.1 0.0
08/04:30pm 17.4 14.6 11.4 68 3.3 W 17 20 9 11 1017.1 1017.0 0.0
08/04:00pm 17.5 15.3 10.9 65 3.5 W 13 19 7 10 1017.2 1017.1 0.0
08/03:30pm 18.0 15.3 11.6 66 3.5 W 17 22 9 12 1017.6 1017.5 0.0
08/03:00pm 18.2 16.5 12.4 69 3.2 WSW 13 19 7 10 1018.0 1017.9 0.0
08/02:30pm 18.1 16.2 11.9 67 3.4 WSW 13 20 7 11 1018.4 1018.3 0.0
08/02:00pm 17.4 15.1 11.7 69 3.1 WSW 15 24 8 13 1018.7 1018.6 0.0
08/01:30pm 17.2 14.1 11.7 70 3.0 W 19 26 10 14 1019.2 1019.1 0.0
08/01:00pm 17.0 15.7 11.1 68 3.2 S 9 19 5 10 1019.3 1019.2 0.0
08/12:30pm 15.9 14.4 10.7 71 2.8 SW 9 15 5 8 1019.6 1019.5 0.0
08/12:00pm 15.1 12.0 10.3 73 2.5 W 17 22 9 12 1019.9 1019.8 0.0
08/11:30am 15.3 13.9 9.4 68 3.0 E 7 11 4 6 1019.8 1019.7 0.0
08/11:00am 14.0 11.9 8.2 68 2.9 SE 9 13 5 7 1019.6 1019.5 0.0
08/10:30am 14.1 12.2 8.9 71 2.6 SE 9 15 5 8 1019.9 1019.8 0.0
08/10:00am 13.1 10.5 7.8 70 2.6 SE 11 17 6 9 1019.9 1019.8 0.0
08/09:30am 13.7 11.8 9.0 73 2.4 S 9 17 5 9 1020.0 1019.9 0.0
08/09:16am 13.9 12.2 9.9 77 2.1 ESE 9 15 5 8 1019.9 1019.8 0.0
08/09:00am 13.1 11.5 10.1 82 1.5 S 9 15 5 8 1020.0 1019.9 1.4
08/08:30am 11.9 10.6 10.0 88 1.0 SSW 7 11 4 6 1020.0 1019.9 1.4
08/08:00am 11.4 9.4 10.3 93 0.6 SSE 11 15 6 8 1019.7 1019.6 1.4
08/07:30am 11.1 9.2 10.5 96 0.3 SSE 11 13 6 7 1019.7 1019.6 1.4
08/07:00am 10.6 9.3 10.0 96 0.3 SSE 7 11 4 6 1019.7 1019.6 1.4
08/06:30am 10.2 8.8 9.6 96 0.3 E 7 9 4 5 1019.5 1019.4 1.4
08/06:27am 10.2 8.4 9.6 96 0.3 E 9 9 5 5 1019.5 1019.4 1.4
08/06:00am 10.0 8.6 9.4 96 0.3 E 7 9 4 5 1019.2 1019.1 1.4
08/05:30am 10.0 8.6 9.4 96 0.3 SE 7 11 4 6 1018.6 1018.5 1.4
08/05:00am 10.1 8.3 9.5 96 0.3 S 9 13 5 7 1018.6 1018.5 1.4
08/04:30am 10.2 8.4 9.6 96 0.3 SSE 9 11 5 6 1017.8 1017.7 1.4
08/04:00am 10.2 10.1 9.4 95 0.4 CALM 0 0 0 0 1017.6 1017.5 1.4
08/03:30am 10.2 10.1 9.4 95 0.4 CALM 0 6 0 3 1017.4 1017.3 1.4
08/03:00am 10.0 9.5 9.4 96 0.3 SW 2 6 1 3 1017.6 1017.5 1.4
08/02:33am 10.4 8.7 9.8 96 0.3 SW 9 11 5 6 1017.9 1017.8 1.4
08/02:30am 10.5 8.8 9.9 96 0.3 SW 9 11 5 6 1018.0 1017.9 1.4
08/02:06am 10.5 7.7 9.9 96 0.3 WSW 15 20 8 11 1018.2 1018.1 1.4
08/02:00am 10.5 7.3 9.9 96 0.3 WSW 17 26 9 14 1018.1 1018.0 1.4
08/01:53am 10.6 7.8 10.0 96 0.3 WSW 15 24 8 13 1018.1 1018.0 1.4
08/01:33am 10.6 7.7 9.8 95 0.4 WSW 15 20 8 11 1018.0 1017.9 1.2
08/01:30am 10.7 7.9 9.9 95 0.4 WSW 15 20 8 11 1018.0 1017.9 1.2
08/01:26am 10.7 7.1 9.9 95 0.4 WSW 19 24 10 13 1017.9 1017.8 1.2
08/01:00am 10.9 9.2 10.0 94 0.5 SW 9 11 5 6 1017.6 1017.5 1.0
08/12:32am 10.9 8.9 10.0 94 0.5 SW 11 15 6 8 1017.3 1017.2 1.0
08/12:30am 10.9 8.5 10.0 94 0.5 SW 13 17 7 9 1017.3 1017.2 1.0
08/12:00am 10.8 8.0 10.0 95 0.4 SW 15 17 8 9 1017.2 1017.1 1.0
 
Date/Time
EDT
Temp
°C
App
Temp
°C
Dew
Point
°C
Rel
Hum
%
Delta-T
°C
Wind Press
QNH
hPa
Press
MSL
hPa
Rain since
9am
mm
Dir  Spd
km/h
Gust
km/h
Spd
kts
Gust
kts
07/11:30pm 10.8 8.4 9.9 94 0.5 WSW 13 17 7 9 1017.0 1016.9 1.0
07/11:28pm 10.8 8.4 9.9 94 0.5 WSW 13 19 7 10 1016.9 1016.8 1.0
07/11:11pm 10.9 7.7 9.8 93 0.6 WSW 17 28 9 15 1016.8 1016.7 1.0
07/11:00pm 10.8 7.9 9.6 92 0.6 SW 15 20 8 11 1016.8 1016.7 1.0
07/10:34pm 11.1 7.9 10.0 93 0.6 SW 17 24 9 13 1016.5 1016.4 1.0
07/10:33pm 11.1 7.9 10.0 93 0.6 SW 17 24 9 13 1016.5 1016.4 1.0
07/10:30pm 11.0 7.8 9.9 93 0.6 SW 17 24 9 13 1016.5 1016.4 1.0
07/10:19pm 11.2 8.4 10.0 92 0.6 WSW 15 20 8 11 1016.5 1016.4 1.0
07/10:15pm 11.2 8.0 10.0 92 0.6 WSW 17 22 9 12 1016.5 1016.4 1.0
07/10:00pm 11.4 8.2 9.8 90 0.8 WSW 17 22 9 12 1016.3 1016.2 1.0
07/09:47pm 11.4 8.5 9.8 90 0.8 SW 15 20 8 11 1016.0 1015.9 1.0
07/09:37pm 11.5 8.3 9.9 90 0.8 SW 17 22 9 12 1015.8 1015.7 1.0
07/09:35pm 11.5 8.3 9.9 90 0.8 SW 17 22 9 12 1015.8 1015.7 1.0
07/09:30pm 11.5 8.3 9.9 90 0.8 SW 17 22 9 12 1015.8 1015.7 1.0
07/09:08pm 11.4 7.6 9.7 89 0.9 WSW 20 28 11 15 1015.7 1015.6 1.0
07/09:00pm 11.4 7.8 9.7 89 0.9 SW 19 22 10 12 1015.5 1015.5 1.0
07/08:41pm 11.3 7.6 9.6 89 0.9 SW 19 26 10 14 1015.3 1015.3 1.0
07/08:30pm 11.3 7.6 9.6 89 0.9 SW 19 26 10 14 1015.0 1015.0 1.0
07/08:00pm 11.6 7.8 9.9 89 0.9 SW 20 28 11 15 1014.6 1014.6 1.0
07/07:30pm 11.7 8.0 10.1 90 0.8 SW 20 28 11 15 1014.6 1014.6 1.0
07/07:00pm 12.1 7.6 10.0 87 1.1 WSW 24 32 13 17 1014.4 1014.4 1.0
07/06:30pm 12.4 7.9 10.1 86 1.2 SW 24 32 13 17 1014.0 1014.0 1.0
07/06:00pm 12.3 7.8 9.9 85 1.2 WSW 24 33 13 18 1013.8 1013.8 1.0
07/05:30pm 12.3 7.3 9.5 83 1.4 WSW 26 35 14 19 1013.7 1013.7 1.0
07/05:00pm 12.2 6.8 9.4 83 1.4 WSW 28 35 15 19 1013.6 1013.6 1.0
07/04:52pm 12.1 6.9 8.9 81 1.6 WSW 26 35 14 19 1013.5 1013.5 1.0
07/04:30pm 12.2 7.0 9.0 81 1.6 WSW 26 35 14 19 1013.4 1013.4 1.0
07/04:00pm 12.5 8.1 9.1 80 1.7 WSW 22 33 12 18 1013.3 1013.3 1.0
07/03:30pm 11.9 7.6 9.3 84 1.3 WSW 22 30 12 16 1013.2 1013.2 1.0
07/03:00pm 12.2 7.4 8.9 80 1.7 WSW 24 33 13 18 1012.9 1012.9 1.0
07/02:30pm 12.4 8.2 9.6 83 1.4 WSW 22 32 12 17 1012.8 1012.8 1.0

Other formats

Comma delimited format used in spreadsheet applications
http://www.bom.gov.au/fwo/IDT60801/IDT60801.94956.axf

JavaScript Object Notation format (JSON) in row-major order
http://www.bom.gov.au/fwo/IDT60801/IDT60801.94956.json

Data quality

Most of these data are generated automatically and are frequently updated. Quality checks on data are not normally performed. It is possible for incorrect values to appear. Refer to information at About Latest Weather Observations and please check the disclaimer before using these data.